Pine Grove, Louisiana
Current Conditions -  °F | °C
As of 4:55 PM on Tuesday 27 Jan 2015 (Local Time) from KHDC Reporting Station
Clear Clear  
Wind Chill: 72°   Ceiling: Unl
Heat Index: 72°   Visibility: 10mi
Dew Point: 30°   Wind: 6mph
Humidity: 22%   Direction: 330°NNW
Pressure: 30.1"   Gusts: NA
Location:  30.71°N, 90.75°W
Report Text: KHDC 272255Z AUTO 33005KT 10SM CLR 22/M01 A3010 RMK AO2
Loading
Personal Weather Stations






























Interactive Weather Map New forecast layout! Learn more

10-Day Weather Forecast

Advertisements
Track Severe Weather on mobile